sensor_id;sensor_type;location;lat;lon;timestamp;temperature;humidity
5775;DHT22;2913;51.120;6.772;2023-04-23T00:00:13;12.10;99.90
5775;DHT22;2913;51.120;6.772;2023-04-23T00:02:43;12.10;99.90
5775;DHT22;2913;51.120;6.772;2023-04-23T00:05:09;12.10;99.90
5775;DHT22;2913;51.120;6.772;2023-04-23T00:07:37;12.10;99.90
5775;DHT22;2913;51.120;6.772;2023-04-23T00:10:03;12.10;99.90
5775;DHT22;2913;51.120;6.772;2023-04-23T00:12:32;12.10;99.90
5775;DHT22;2913;51.120;6.772;2023-04-23T00:15:01;12.10;99.90
5775;DHT22;2913;51.120;6.772;2023-04-23T00:17:27;12.10;99.90
5775;DHT22;2913;51.120;6.772;2023-04-23T00:19:55;12.10;99.90
5775;DHT22;2913;51.120;6.772;2023-04-23T00:22:23;12.10;99.90
5775;DHT22;2913;51.120;6.772;2023-04-23T00:24:49;12.10;99.90
5775;DHT22;2913;51.120;6.772;2023-04-23T00:27:14;12.10;99.90
5775;DHT22;2913;51.120;6.772;2023-04-23T00:29:42;12.10;99.90
5775;DHT22;2913;51.120;6.772;2023-04-23T00:32:08;12.00;99.90
5775;DHT22;2913;51.120;6.772;2023-04-23T00:34:36;12.00;99.90
5775;DHT22;2913;51.120;6.772;2023-04-23T00:37:02;12.00;99.90
5775;DHT22;2913;51.120;6.772;2023-04-23T00:39:33;12.00;99.90
5775;DHT22;2913;51.120;6.772;2023-04-23T00:42:00;11.90;99.90
5775;DHT22;2913;51.120;6.772;2023-04-23T00:44:31;11.90;99.90
5775;DHT22;2913;51.120;6.772;2023-04-23T00:46:59;11.90;99.90
5775;DHT22;2913;51.120;6.772;2023-04-23T00:49:30;11.90;99.90
5775;DHT22;2913;51.120;6.772;2023-04-23T00:51:56;11.90;99.90
5775;DHT22;2913;51.120;6.772;2023-04-23T00:54:21;11.80;99.90
5775;DHT22;2913;51.120;6.772;2023-04-23T00:56:50;11.80;99.90
5775;DHT22;2913;51.120;6.772;2023-04-23T00:59:16;11.80;99.90
5775;DHT22;2913;51.120;6.772;2023-04-23T01:01:42;11.80;99.90
5775;DHT22;2913;51.120;6.772;2023-04-23T01:04:12;11.80;99.90
5775;DHT22;2913;51.120;6.772;2023-04-23T01:06:39;11.80;99.90
5775;DHT22;2913;51.120;6.772;2023-04-23T01:09:06;11.70;99.90
5775;DHT22;2913;51.120;6.772;2023-04-23T01:11:37;11.70;99.90
5775;DHT22;2913;51.120;6.772;2023-04-23T01:14:03;11.70;99.90
5775;DHT22;2913;51.120;6.772;2023-04-23T01:16:31;11.70;99.90
5775;DHT22;2913;51.120;6.772;2023-04-23T01:18:57;11.70;99.90
5775;DHT22;2913;51.120;6.772;2023-04-23T01:21:23;11.70;99.90
5775;DHT22;2913;51.120;6.772;2023-04-23T01:23:49;11.70;99.90
5775;DHT22;2913;51.120;6.772;2023-04-23T01:26:15;11.60;99.90
5775;DHT22;2913;51.120;6.772;2023-04-23T01:28:43;11.50;99.90
5775;DHT22;2913;51.120;6.772;2023-04-23T01:31:12;11.50;99.90
5775;DHT22;2913;51.120;6.772;2023-04-23T01:33:40;11.50;99.90
5775;DHT22;2913;51.120;6.772;2023-04-23T01:36:06;11.50;99.90
5775;DHT22;2913;51.120;6.772;2023-04-23T01:38:33;11.40;99.90
5775;DHT22;2913;51.120;6.772;2023-04-23T01:41:02;11.30;99.90
5775;DHT22;2913;51.120;6.772;2023-04-23T01:43:28;11.30;99.90
5775;DHT22;2913;51.120;6.772;2023-04-23T01:45:54;11.30;99.90
5775;DHT22;2913;51.120;6.772;2023-04-23T01:48:19;11.20;99.90
5775;DHT22;2913;51.120;6.772;2023-04-23T01:50:46;11.20;99.90
5775;DHT22;2913;51.120;6.772;2023-04-23T01:53:14;11.20;99.90
5775;DHT22;2913;51.120;6.772;2023-04-23T01:55:42;11.20;99.90
5775;DHT22;2913;51.120;6.772;2023-04-23T01:58:09;11.10;99.90
5775;DHT22;2913;51.120;6.772;2023-04-23T02:00:35;11.10;99.90
5775;DHT22;2913;51.120;6.772;2023-04-23T02:03:05;11.10;99.90
5775;DHT22;2913;51.120;6.772;2023-04-23T02:05:33;11.00;99.90
5775;DHT22;2913;51.120;6.772;2023-04-23T02:07:59;11.00;99.90
5775;DHT22;2913;51.120;6.772;2023-04-23T02:10:25;11.00;99.90
5775;DHT22;2913;51.120;6.772;2023-04-23T02:12:51;10.90;99.90
5775;DHT22;2913;51.120;6.772;2023-04-23T02:15:19;10.80;99.90
5775;DHT22;2913;51.120;6.772;2023-04-23T02:17:45;10.90;99.90
5775;DHT22;2913;51.120;6.772;2023-04-23T02:20:11;10.90;99.90
5775;DHT22;2913;51.120;6.772;2023-04-23T02:22:43;10.80;99.90
5775;DHT22;2913;51.120;6.772;2023-04-23T02:25:09;10.80;99.90
5775;DHT22;2913;51.120;6.772;2023-04-23T02:27:40;10.70;99.90
5775;DHT22;2913;51.120;6.772;2023-04-23T02:30:06;10.70;99.90
5775;DHT22;2913;51.120;6.772;2023-04-23T02:32:33;10.60;99.90
5775;DHT22;2913;51.120;6.772;2023-04-23T02:35:01;10.60;99.90
5775;DHT22;2913;51.120;6.772;2023-04-23T02:37:27;10.60;99.90
5775;DHT22;2913;51.120;6.772;2023-04-23T02:39:53;10.60;99.90
5775;DHT22;2913;51.120;6.772;2023-04-23T02:42:19;10.60;99.90
5775;DHT22;2913;51.120;6.772;2023-04-23T02:44:44;10.50;99.90
5775;DHT22;2913;51.120;6.772;2023-04-23T02:47:12;10.40;99.90
5775;DHT22;2913;51.120;6.772;2023-04-23T02:49:40;10.50;99.90
5775;DHT22;2913;51.120;6.772;2023-04-23T02:52:08;10.50;99.90
5775;DHT22;2913;51.120;6.772;2023-04-23T02:54:34;10.50;99.90
5775;DHT22;2913;51.120;6.772;2023-04-23T02:57:04;10.50;99.90
5775;DHT22;2913;51.120;6.772;2023-04-23T02:59:30;10.50;99.90
5775;DHT22;2913;51.120;6.772;2023-04-23T03:01:56;10.50;99.90
5775;DHT22;2913;51.120;6.772;2023-04-23T03:04:22;10.40;99.90
5775;DHT22;2913;51.120;6.772;2023-04-23T03:06:49;10.50;99.90
5775;DHT22;2913;51.120;6.772;2023-04-23T03:09:17;10.50;99.90
5775;DHT22;2913;51.120;6.772;2023-04-23T03:11:43;10.60;99.90
5775;DHT22;2913;51.120;6.772;2023-04-23T03:14:09;10.60;99.90
5775;DHT22;2913;51.120;6.772;2023-04-23T03:16:36;10.60;99.90
5775;DHT22;2913;51.120;6.772;2023-04-23T03:19:02;10.60;99.90
5775;DHT22;2913;51.120;6.772;2023-04-23T03:21:28;10.60;99.90
5775;DHT22;2913;51.120;6.772;2023-04-23T03:23:53;10.60;99.90
5775;DHT22;2913;51.120;6.772;2023-04-23T03:26:19;10.60;99.90
5775;DHT22;2913;51.120;6.772;2023-04-23T03:28:49;10.50;99.90
5775;DHT22;2913;51.120;6.772;2023-04-23T03:31:17;10.60;99.90
5775;DHT22;2913;51.120;6.772;2023-04-23T03:33:42;10.60;99.90
5775;DHT22;2913;51.120;6.772;2023-04-23T03:36:10;10.60;99.90
5775;DHT22;2913;51.120;6.772;2023-04-23T03:38:36;10.50;99.90
5775;DHT22;2913;51.120;6.772;2023-04-23T03:41:01;10.50;99.90
5775;DHT22;2913;51.120;6.772;2023-04-23T03:43:27;10.40;99.90
5775;DHT22;2913;51.120;6.772;2023-04-23T03:45:55;10.50;99.90
5775;DHT22;2913;51.120;6.772;2023-04-23T03:48:20;10.50;99.90
5775;DHT22;2913;51.120;6.772;2023-04-23T03:50:48;10.50;99.90
5775;DHT22;2913;51.120;6.772;2023-04-23T03:53:14;10.50;99.90
5775;DHT22;2913;51.120;6.772;2023-04-23T03:55:42;10.50;99.90
5775;DHT22;2913;51.120;6.772;2023-04-23T03:58:07;10.60;99.90
5775;DHT22;2913;51.120;6.772;2023-04-23T04:00:36;10.60;99.90
5775;DHT22;2913;51.120;6.772;2023-04-23T04:03:01;10.60;99.90
5775;DHT22;2913;51.120;6.772;2023-04-23T04:05:27;10.60;99.90
5775;DHT22;2913;51.120;6.772;2023-04-23T04:07:53;10.50;99.90
5775;DHT22;2913;51.120;6.772;2023-04-23T04:10:19;10.40;99.90
5775;DHT22;2913;51.120;6.772;2023-04-23T04:12:47;10.50;99.90
5775;DHT22;2913;51.120;6.772;2023-04-23T04:15:13;10.50;99.90
5775;DHT22;2913;51.120;6.772;2023-04-23T04:17:42;10.40;99.90
5775;DHT22;2913;51.120;6.772;2023-04-23T04:20:10;10.50;99.90
5775;DHT22;2913;51.120;6.772;2023-04-23T04:22:38;10.50;99.90
5775;DHT22;2913;51.120;6.772;2023-04-23T04:25:04;10.50;99.90
5775;DHT22;2913;51.120;6.772;2023-04-23T04:27:31;10.50;99.90
5775;DHT22;2913;51.120;6.772;2023-04-23T04:30:00;10.60;99.90
5775;DHT22;2913;51.120;6.772;2023-04-23T04:32:31;10.60;99.90
5775;DHT22;2913;51.120;6.772;2023-04-23T04:34:59;10.60;99.90
5775;DHT22;2913;51.120;6.772;2023-04-23T04:37:25;10.60;99.90
5775;DHT22;2913;51.120;6.772;2023-04-23T04:39:50;10.60;99.90
5775;DHT22;2913;51.120;6.772;2023-04-23T04:42:16;10.60;99.90
5775;DHT22;2913;51.120;6.772;2023-04-23T04:44:44;10.60;99.90
5775;DHT22;2913;51.120;6.772;2023-04-23T04:47:10;10.70;99.90
5775;DHT22;2913;51.120;6.772;2023-04-23T04:49:37;10.70;99.90
5775;DHT22;2913;51.120;6.772;2023-04-23T04:52:03;10.80;99.90
5775;DHT22;2913;51.120;6.772;2023-04-23T04:54:31;10.90;99.90
5775;DHT22;2913;51.120;6.772;2023-04-23T04:56:56;11.00;99.90
5775;DHT22;2913;51.120;6.772;2023-04-23T04:59:24;11.10;99.90
5775;DHT22;2913;51.120;6.772;2023-04-23T05:01:50;11.10;99.90
5775;DHT22;2913;51.120;6.772;2023-04-23T05:04:15;11.20;99.90
5775;DHT22;2913;51.120;6.772;2023-04-23T05:06:41;11.20;99.90
5775;DHT22;2913;51.120;6.772;2023-04-23T05:09:07;11.20;99.90
5775;DHT22;2913;51.120;6.772;2023-04-23T05:11:35;11.20;99.90
5775;DHT22;2913;51.120;6.772;2023-04-23T05:14:00;11.20;99.90
5775;DHT22;2913;51.120;6.772;2023-04-23T05:16:26;11.30;99.90
5775;DHT22;2913;51.120;6.772;2023-04-23T05:18:51;11.20;99.90
5775;DHT22;2913;51.120;6.772;2023-04-23T05:21:19;11.30;99.90
5775;DHT22;2913;51.120;6.772;2023-04-23T05:23:47;11.20;99.90
5775;DHT22;2913;51.120;6.772;2023-04-23T05:26:14;11.30;99.90
5775;DHT22;2913;51.120;6.772;2023-04-23T05:28:39;11.20;99.90
5775;DHT22;2913;51.120;6.772;2023-04-23T05:31:05;11.30;99.90
5775;DHT22;2913;51.120;6.772;2023-04-23T05:33:31;11.30;99.90
5775;DHT22;2913;51.120;6.772;2023-04-23T05:35:59;11.30;99.90
5775;DHT22;2913;51.120;6.772;2023-04-23T05:38:24;11.30;99.90
5775;DHT22;2913;51.120;6.772;2023-04-23T05:40:50;11.40;99.90
5775;DHT22;2913;51.120;6.772;2023-04-23T05:43:16;11.40;99.90
5775;DHT22;2913;51.120;6.772;2023-04-23T05:45:41;11.40;99.90
5775;DHT22;2913;51.120;6.772;2023-04-23T05:48:11;11.40;99.90
5775;DHT22;2913;51.120;6.772;2023-04-23T05:50:37;11.50;99.90
5775;DHT22;2913;51.120;6.772;2023-04-23T05:53:02;11.50;99.90
5775;DHT22;2913;51.120;6.772;2023-04-23T05:55:28;11.50;99.90
5775;DHT22;2913;51.120;6.772;2023-04-23T05:57:56;11.50;99.90
5775;DHT22;2913;51.120;6.772;2023-04-23T06:00:22;11.60;99.90
5775;DHT22;2913;51.120;6.772;2023-04-23T06:02:47;11.60;99.90
5775;DHT22;2913;51.120;6.772;2023-04-23T06:05:18;11.70;99.90
5775;DHT22;2913;51.120;6.772;2023-04-23T06:07:46;11.70;99.90
5775;DHT22;2913;51.120;6.772;2023-04-23T06:10:11;11.70;99.90
5775;DHT22;2913;51.120;6.772;2023-04-23T06:12:41;11.70;99.90
5775;DHT22;2913;51.120;6.772;2023-04-23T06:15:09;11.80;99.90
5775;DHT22;2913;51.120;6.772;2023-04-23T06:17:36;11.90;99.90
5775;DHT22;2913;51.120;6.772;2023-04-23T06:20:02;12.00;99.90
5775;DHT22;2913;51.120;6.772;2023-04-23T06:22:31;12.00;99.90
5775;DHT22;2913;51.120;6.772;2023-04-23T06:24:57;12.10;99.90
5775;DHT22;2913;51.120;6.772;2023-04-23T06:27:22;12.20;99.90
5775;DHT22;2913;51.120;6.772;2023-04-23T06:29:50;12.30;99.90
5775;DHT22;2913;51.120;6.772;2023-04-23T06:32:16;12.30;99.90
5775;DHT22;2913;51.120;6.772;2023-04-23T06:34:41;12.40;99.90
5775;DHT22;2913;51.120;6.772;2023-04-23T06:37:07;12.60;99.90
5775;DHT22;2913;51.120;6.772;2023-04-23T06:39:33;12.70;99.90
5775;DHT22;2913;51.120;6.772;2023-04-23T06:41:58;12.80;99.90
5775;DHT22;2913;51.120;6.772;2023-04-23T06:44:24;12.80;99.90
5775;DHT22;2913;51.120;6.772;2023-04-23T06:46:52;12.90;99.90
5775;DHT22;2913;51.120;6.772;2023-04-23T06:49:19;13.00;99.90
5775;DHT22;2913;51.120;6.772;2023-04-23T06:51:45;13.10;99.90
5775;DHT22;2913;51.120;6.772;2023-04-23T06:54:11;13.10;99.90
5775;DHT22;2913;51.120;6.772;2023-04-23T06:56:36;13.20;99.90
5775;DHT22;2913;51.120;6.772;2023-04-23T06:59:02;13.30;99.90
5775;DHT22;2913;51.120;6.772;2023-04-23T07:01:30;13.30;99.90
5775;DHT22;2913;51.120;6.772;2023-04-23T07:03:59;13.30;99.90
5775;DHT22;2913;51.120;6.772;2023-04-23T07:06:25;13.30;99.90
5775;DHT22;2913;51.120;6.772;2023-04-23T07:08:54;13.40;99.90
5775;DHT22;2913;51.120;6.772;2023-04-23T07:11:20;13.50;99.90
5775;DHT22;2913;51.120;6.772;2023-04-23T07:13:45;13.70;99.90
5775;DHT22;2913;51.120;6.772;2023-04-23T07:16:11;13.80;99.90
5775;DHT22;2913;51.120;6.772;2023-04-23T07:18:37;13.90;99.90
5775;DHT22;2913;51.120;6.772;2023-04-23T07:21:04;14.00;99.90
5775;DHT22;2913;51.120;6.772;2023-04-23T07:23:30;14.10;99.90
5775;DHT22;2913;51.120;6.772;2023-04-23T07:25:58;14.30;99.90
5775;DHT22;2913;51.120;6.772;2023-04-23T07:28:26;14.50;99.90
5775;DHT22;2913;51.120;6.772;2023-04-23T07:30:51;14.60;99.90
5775;DHT22;2913;51.120;6.772;2023-04-23T07:33:17;14.80;99.90
5775;DHT22;2913;51.120;6.772;2023-04-23T07:35:43;15.00;99.90
5775;DHT22;2913;51.120;6.772;2023-04-23T07:38:11;15.10;99.90
5775;DHT22;2913;51.120;6.772;2023-04-23T07:40:37;15.20;99.90
5775;DHT22;2913;51.120;6.772;2023-04-23T07:43:02;15.40;99.90
5775;DHT22;2913;51.120;6.772;2023-04-23T07:45:30;15.80;99.90
5775;DHT22;2913;51.120;6.772;2023-04-23T07:47:58;15.90;99.90
5775;DHT22;2913;51.120;6.772;2023-04-23T07:50:24;15.80;99.90
5775;DHT22;2913;51.120;6.772;2023-04-23T07:52:50;15.90;99.90
5775;DHT22;2913;51.120;6.772;2023-04-23T07:55:20;16.10;99.90
5775;DHT22;2913;51.120;6.772;2023-04-23T07:57:46;16.10;99.90
5775;DHT22;2913;51.120;6.772;2023-04-23T08:00:12;16.00;99.90
5775;DHT22;2913;51.120;6.772;2023-04-23T08:02:38;16.20;99.90
5775;DHT22;2913;51.120;6.772;2023-04-23T08:05:07;16.50;99.90
5775;DHT22;2913;51.120;6.772;2023-04-23T08:07:35;16.50;99.90
5775;DHT22;2913;51.120;6.772;2023-04-23T08:10:03;16.60;99.90
5775;DHT22;2913;51.120;6.772;2023-04-23T08:12:31;16.80;99.90
5775;DHT22;2913;51.120;6.772;2023-04-23T08:14:59;17.00;99.90
5775;DHT22;2913;51.120;6.772;2023-04-23T08:17:24;16.70;99.90
5775;DHT22;2913;51.120;6.772;2023-04-23T08:19:50;16.90;99.90
5775;DHT22;2913;51.120;6.772;2023-04-23T08:22:18;16.90;99.90
5775;DHT22;2913;51.120;6.772;2023-04-23T08:24:44;17.00;99.90
5775;DHT22;2913;51.120;6.772;2023-04-23T08:27:12;17.10;99.90
5775;DHT22;2913;51.120;6.772;2023-04-23T08:29:38;17.20;99.90
5775;DHT22;2913;51.120;6.772;2023-04-23T08:32:03;17.40;99.90
5775;DHT22;2913;51.120;6.772;2023-04-23T08:34:29;17.70;99.90
5775;DHT22;2913;51.120;6.772;2023-04-23T08:36:57;17.70;99.90
5775;DHT22;2913;51.120;6.772;2023-04-23T08:39:27;17.80;99.90
5775;DHT22;2913;51.120;6.772;2023-04-23T08:41:54;17.80;99.90
5775;DHT22;2913;51.120;6.772;2023-04-23T08:44:24;17.80;99.90
5775;DHT22;2913;51.120;6.772;2023-04-23T08:46:54;17.70;99.90
5775;DHT22;2913;51.120;6.772;2023-04-23T08:49:20;18.00;99.90
5775;DHT22;2913;51.120;6.772;2023-04-23T08:51:51;18.20;99.90
5775;DHT22;2913;51.120;6.772;2023-04-23T08:54:36;18.40;99.90
5775;DHT22;2913;51.120;6.772;2023-04-23T08:57:06;18.20;99.90
5775;DHT22;2913;51.120;6.772;2023-04-23T08:59:36;18.50;99.90
5775;DHT22;2913;51.120;6.772;2023-04-23T09:02:04;18.60;99.90
5775;DHT22;2913;51.120;6.772;2023-04-23T09:04:37;18.50;99.90
5775;DHT22;2913;51.120;6.772;2023-04-23T09:07:05;18.30;99.90
5775;DHT22;2913;51.120;6.772;2023-04-23T09:09:38;18.50;99.90
5775;DHT22;2913;51.120;6.772;2023-04-23T09:12:05;18.50;99.90
5775;DHT22;2913;51.120;6.772;2023-04-23T09:14:34;18.50;99.90
5775;DHT22;2913;51.120;6.772;2023-04-23T09:17:01;18.30;99.90
5775;DHT22;2913;51.120;6.772;2023-04-23T09:19:27;18.50;99.90
5775;DHT22;2913;51.120;6.772;2023-04-23T09:21:53;18.40;99.90
5775;DHT22;2913;51.120;6.772;2023-04-23T09:24:24;18.60;99.90
5775;DHT22;2913;51.120;6.772;2023-04-23T09:26:52;18.50;99.90
5775;DHT22;2913;51.120;6.772;2023-04-23T09:29:24;18.60;99.90
5775;DHT22;2913;51.120;6.772;2023-04-23T09:32:02;18.70;99.90
5775;DHT22;2913;51.120;6.772;2023-04-23T09:34:34;18.70;99.90
5775;DHT22;2913;51.120;6.772;2023-04-23T09:37:04;18.60;99.90
5775;DHT22;2913;51.120;6.772;2023-04-23T09:39:32;18.80;99.90
5775;DHT22;2913;51.120;6.772;2023-04-23T09:42:05;19.00;99.90
5775;DHT22;2913;51.120;6.772;2023-04-23T09:44:35;18.60;99.90
5775;DHT22;2913;51.120;6.772;2023-04-23T09:47:06;18.70;99.90
5775;DHT22;2913;51.120;6.772;2023-04-23T09:49:49;18.70;99.90
5775;DHT22;2913;51.120;6.772;2023-04-23T09:52:17;18.80;99.90
5775;DHT22;2913;51.120;6.772;2023-04-23T09:54:43;19.00;99.90
5775;DHT22;2913;51.120;6.772;2023-04-23T09:57:11;19.00;99.90
5775;DHT22;2913;51.120;6.772;2023-04-23T09:59:39;19.10;99.90
5775;DHT22;2913;51.120;6.772;2023-04-23T10:02:06;19.10;99.90
5775;DHT22;2913;51.120;6.772;2023-04-23T10:04:33;19.10;99.90
5775;DHT22;2913;51.120;6.772;2023-04-23T10:07:01;19.10;99.90
5775;DHT22;2913;51.120;6.772;2023-04-23T10:09:28;18.90;99.90
5775;DHT22;2913;51.120;6.772;2023-04-23T10:11:54;19.00;99.90
5775;DHT22;2913;51.120;6.772;2023-04-23T10:14:21;19.10;99.90
5775;DHT22;2913;51.120;6.772;2023-04-23T10:16:46;19.10;99.90
5775;DHT22;2913;51.120;6.772;2023-04-23T10:19:15;19.10;99.90
5775;DHT22;2913;51.120;6.772;2023-04-23T10:21:41;19.10;99.90
5775;DHT22;2913;51.120;6.772;2023-04-23T10:24:11;19.20;99.90
5775;DHT22;2913;51.120;6.772;2023-04-23T10:26:37;19.20;99.90
5775;DHT22;2913;51.120;6.772;2023-04-23T10:29:07;19.30;99.90
5775;DHT22;2913;51.120;6.772;2023-04-23T10:31:35;19.40;99.90
5775;DHT22;2913;51.120;6.772;2023-04-23T10:34:01;19.30;99.90
5775;DHT22;2913;51.120;6.772;2023-04-23T10:36:32;19.40;99.90
5775;DHT22;2913;51.120;6.772;2023-04-23T10:38:58;19.40;99.90
5775;DHT22;2913;51.120;6.772;2023-04-23T10:41:36;19.30;99.90
5775;DHT22;2913;51.120;6.772;2023-04-23T10:44:08;19.20;99.90
5775;DHT22;2913;51.120;6.772;2023-04-23T10:46:35;19.10;99.80
5775;DHT22;2913;51.120;6.772;2023-04-23T10:49:10;19.10;98.80
5775;DHT22;2913;51.120;6.772;2023-04-23T10:51:47;19.10;98.40
5775;DHT22;2913;51.120;6.772;2023-04-23T10:54:18;19.00;98.00
5775;DHT22;2913;51.120;6.772;2023-04-23T10:56:43;19.00;99.70
5775;DHT22;2913;51.120;6.772;2023-04-23T10:59:19;19.20;99.90
5775;DHT22;2913;51.120;6.772;2023-04-23T11:02:00;19.30;99.90
5775;DHT22;2913;51.120;6.772;2023-04-23T11:04:30;19.40;99.90
5775;DHT22;2913;51.120;6.772;2023-04-23T11:09:47;19.50;98.40
5775;DHT22;2913;51.120;6.772;2023-04-23T11:14:49;20.10;99.90
5775;DHT22;2913;51.120;6.772;2023-04-23T11:20:21;20.30;94.30
5775;DHT22;2913;51.120;6.772;2023-04-23T11:22:49;20.10;94.70
5775;DHT22;2913;51.120;6.772;2023-04-23T11:25:19;19.70;92.80
5775;DHT22;2913;51.120;6.772;2023-04-23T11:27:47;19.80;95.60
5775;DHT22;2913;51.120;6.772;2023-04-23T11:30:23;19.60;96.30
5775;DHT22;2913;51.120;6.772;2023-04-23T11:32:50;19.50;98.40
5775;DHT22;2913;51.120;6.772;2023-04-23T11:35:22;19.50;99.60
5775;DHT22;2913;51.120;6.772;2023-04-23T11:37:48;19.50;97.40
5775;DHT22;2913;51.120;6.772;2023-04-23T11:40:16;19.60;97.10
5775;DHT22;2913;51.120;6.772;2023-04-23T11:42:46;19.70;95.70
5775;DHT22;2913;51.120;6.772;2023-04-23T11:45:22;19.80;94.90
5775;DHT22;2913;51.120;6.772;2023-04-23T11:47:50;20.00;95.10
5775;DHT22;2913;51.120;6.772;2023-04-23T11:50:21;20.10;94.60
5775;DHT22;2913;51.120;6.772;2023-04-23T11:52:47;20.10;93.70
5775;DHT22;2913;51.120;6.772;2023-04-23T11:55:13;20.30;94.80
5775;DHT22;2913;51.120;6.772;2023-04-23T11:57:56;20.20;92.30
5775;DHT22;2913;51.120;6.772;2023-04-23T12:00:26;20.20;93.40
5775;DHT22;2913;51.120;6.772;2023-04-23T12:02:56;20.10;91.60
5775;DHT22;2913;51.120;6.772;2023-04-23T12:08:18;19.80;90.20
5775;DHT22;2913;51.120;6.772;2023-04-23T12:10:50;19.80;90.50
5775;DHT22;2913;51.120;6.772;2023-04-23T12:13:21;19.90;89.90
5775;DHT22;2913;51.120;6.772;2023-04-23T12:15:51;20.10;88.30
5775;DHT22;2913;51.120;6.772;2023-04-23T12:20:55;20.40;89.70
5775;DHT22;2913;51.120;6.772;2023-04-23T12:23:25;20.70;89.60
5775;DHT22;2913;51.120;6.772;2023-04-23T12:25:53;20.80;84.60
5775;DHT22;2913;51.120;6.772;2023-04-23T12:28:22;20.50;82.00
5775;DHT22;2913;51.120;6.772;2023-04-23T12:30:49;20.70;83.70
5775;DHT22;2913;51.120;6.772;2023-04-23T12:33:17;20.60;81.80
5775;DHT22;2913;51.120;6.772;2023-04-23T12:35:48;20.60;82.00
5775;DHT22;2913;51.120;6.772;2023-04-23T12:38:27;20.80;81.80
5775;DHT22;2913;51.120;6.772;2023-04-23T12:40:54;20.90;81.90
5775;DHT22;2913;51.120;6.772;2023-04-23T12:43:24;20.60;78.60
5775;DHT22;2913;51.120;6.772;2023-04-23T12:45:51;20.30;77.70
5775;DHT22;2913;51.120;6.772;2023-04-23T12:48:19;20.30;80.50
5775;DHT22;2913;51.120;6.772;2023-04-23T12:50:45;20.20;81.70
5775;DHT22;2913;51.120;6.772;2023-04-23T12:53:11;20.40;81.90
5775;DHT22;2913;51.120;6.772;2023-04-23T12:55:37;20.60;84.00
5775;DHT22;2913;51.120;6.772;2023-04-23T12:58:09;20.60;82.30
5775;DHT22;2913;51.120;6.772;2023-04-23T13:00:37;20.50;80.10
5775;DHT22;2913;51.120;6.772;2023-04-23T13:03:03;20.60;81.80
5775;DHT22;2913;51.120;6.772;2023-04-23T13:05:29;20.60;82.80
5775;DHT22;2913;51.120;6.772;2023-04-23T13:07:55;20.40;78.90
5775;DHT22;2913;51.120;6.772;2023-04-23T13:10:21;20.50;78.80
5775;DHT22;2913;51.120;6.772;2023-04-23T13:12:51;20.50;81.30
5775;DHT22;2913;51.120;6.772;2023-04-23T13:15:17;20.30;81.90
5775;DHT22;2913;51.120;6.772;2023-04-23T13:17:44;20.00;79.80
5775;DHT22;2913;51.120;6.772;2023-04-23T13:20:10;20.10;81.40
5775;DHT22;2913;51.120;6.772;2023-04-23T13:22:35;20.20;82.10
5775;DHT22;2913;51.120;6.772;2023-04-23T13:25:01;20.20;84.30
5775;DHT22;2913;51.120;6.772;2023-04-23T13:27:28;20.20;84.00
5775;DHT22;2913;51.120;6.772;2023-04-23T13:29:54;20.20;83.50
5775;DHT22;2913;51.120;6.772;2023-04-23T13:32:20;20.10;82.00
5775;DHT22;2913;51.120;6.772;2023-04-23T13:34:47;20.20;84.20
5775;DHT22;2913;51.120;6.772;2023-04-23T13:37:13;20.00;83.60
5775;DHT22;2913;51.120;6.772;2023-04-23T13:39:42;20.10;84.50
5775;DHT22;2913;51.120;6.772;2023-04-23T13:42:07;20.10;84.20
5775;DHT22;2913;51.120;6.772;2023-04-23T13:44:33;19.90;83.20
5775;DHT22;2913;51.120;6.772;2023-04-23T13:47:00;19.80;82.20
5775;DHT22;2913;51.120;6.772;2023-04-23T13:49:26;19.90;83.10
5775;DHT22;2913;51.120;6.772;2023-04-23T13:51:55;19.80;83.90
5775;DHT22;2913;51.120;6.772;2023-04-23T13:54:27;19.80;81.00
5775;DHT22;2913;51.120;6.772;2023-04-23T13:56:54;19.70;82.00
5775;DHT22;2913;51.120;6.772;2023-04-23T13:59:20;19.70;81.20
5775;DHT22;2913;51.120;6.772;2023-04-23T14:01:46;19.70;82.20
5775;DHT22;2913;51.120;6.772;2023-04-23T14:04:18;19.60;81.30
5775;DHT22;2913;51.120;6.772;2023-04-23T14:06:46;19.50;82.80
5775;DHT22;2913;51.120;6.772;2023-04-23T14:09:15;19.40;82.10
5775;DHT22;2913;51.120;6.772;2023-04-23T14:11:43;19.40;81.70
5775;DHT22;2913;51.120;6.772;2023-04-23T14:14:09;19.50;81.80
5775;DHT22;2913;51.120;6.772;2023-04-23T14:16:37;19.50;82.40
5775;DHT22;2913;51.120;6.772;2023-04-23T14:19:02;19.40;83.10
5775;DHT22;2913;51.120;6.772;2023-04-23T14:21:28;19.50;85.40
5775;DHT22;2913;51.120;6.772;2023-04-23T14:26:57;19.10;79.60
5775;DHT22;2913;51.120;6.772;2023-04-23T14:29:34;19.30;77.60
5775;DHT22;2913;51.120;6.772;2023-04-23T14:32:00;19.20;78.50
5775;DHT22;2913;51.120;6.772;2023-04-23T14:34:26;19.20;79.50
5775;DHT22;2913;51.120;6.772;2023-04-23T14:36:52;19.00;79.80
5775;DHT22;2913;51.120;6.772;2023-04-23T14:39:20;19.00;82.90
5775;DHT22;2913;51.120;6.772;2023-04-23T14:41:45;19.10;85.10
5775;DHT22;2913;51.120;6.772;2023-04-23T14:44:11;19.00;85.10
5775;DHT22;2913;51.120;6.772;2023-04-23T14:46:39;19.00;84.50
5775;DHT22;2913;51.120;6.772;2023-04-23T14:49:07;18.90;85.40
5775;DHT22;2913;51.120;6.772;2023-04-23T14:51:33;18.80;86.00
5775;DHT22;2913;51.120;6.772;2023-04-23T14:53:59;18.70;87.20
5775;DHT22;2913;51.120;6.772;2023-04-23T14:56:24;18.70;87.50
5775;DHT22;2913;51.120;6.772;2023-04-23T14:58:54;18.60;90.10
5775;DHT22;2913;51.120;6.772;2023-04-23T15:01:19;18.60;91.30
5775;DHT22;2913;51.120;6.772;2023-04-23T15:03:45;18.50;91.80
5775;DHT22;2913;51.120;6.772;2023-04-23T15:06:13;18.30;91.60
5775;DHT22;2913;51.120;6.772;2023-04-23T15:08:41;18.20;93.20
5775;DHT22;2913;51.120;6.772;2023-04-23T15:11:11;18.00;98.00
5775;DHT22;2913;51.120;6.772;2023-04-23T15:13:55;17.80;99.90
5775;DHT22;2913;51.120;6.772;2023-04-23T15:16:25;17.60;99.90
5775;DHT22;2913;51.120;6.772;2023-04-23T15:18:54;17.50;99.90
5775;DHT22;2913;51.120;6.772;2023-04-23T15:21:20;17.40;99.90
5775;DHT22;2913;51.120;6.772;2023-04-23T15:23:45;17.30;99.90
5775;DHT22;2913;51.120;6.772;2023-04-23T15:26:11;17.10;99.90
5775;DHT22;2913;51.120;6.772;2023-04-23T15:28:36;16.90;99.90
5775;DHT22;2913;51.120;6.772;2023-04-23T15:31:03;16.80;99.90
5775;DHT22;2913;51.120;6.772;2023-04-23T15:33:31;16.60;99.90
5775;DHT22;2913;51.120;6.772;2023-04-23T15:35:57;16.40;99.90
5775;DHT22;2913;51.120;6.772;2023-04-23T15:38:22;16.30;99.90
5775;DHT22;2913;51.120;6.772;2023-04-23T15:40:48;16.30;99.90
5775;DHT22;2913;51.120;6.772;2023-04-23T15:43:15;16.10;99.90
5775;DHT22;2913;51.120;6.772;2023-04-23T15:45:41;15.90;99.90
5775;DHT22;2913;51.120;6.772;2023-04-23T15:48:15;15.80;99.90
5775;DHT22;2913;51.120;6.772;2023-04-23T15:50:41;15.80;99.90
5775;DHT22;2913;51.120;6.772;2023-04-23T15:53:09;15.80;99.90
5775;DHT22;2913;51.120;6.772;2023-04-23T15:55:35;15.80;99.90
5775;DHT22;2913;51.120;6.772;2023-04-23T15:58:03;15.70;99.90
5775;DHT22;2913;51.120;6.772;2023-04-23T16:00:31;15.70;99.90
5775;DHT22;2913;51.120;6.772;2023-04-23T16:02:58;15.70;99.90
5775;DHT22;2913;51.120;6.772;2023-04-23T16:05:25;15.70;99.90
5775;DHT22;2913;51.120;6.772;2023-04-23T16:07:51;15.80;99.90
5775;DHT22;2913;51.120;6.772;2023-04-23T16:10:19;15.70;99.90
5775;DHT22;2913;51.120;6.772;2023-04-23T16:12:44;15.80;99.90
5775;DHT22;2913;51.120;6.772;2023-04-23T16:15:12;15.60;99.90
5775;DHT22;2913;51.120;6.772;2023-04-23T16:17:41;15.50;99.90
5775;DHT22;2913;51.120;6.772;2023-04-23T16:20:09;15.60;99.90